Time;durP1;ratioP1;P1;durP2;ratioP2;P2;SDS_P1;SDS_P2;PMS_P1;PMS_P2;Temp;Humidity;BMP_temperature;BMP_pressure;BME280_temperature;BME280_humidity;BME280_pressure;Samples;Min_cycle;Max_cycle;Signal;HPM_P1;HPM_P2
2022/04/22 00:00:09;;;;;;;16.50;11.52;;;13.90;50.80;;;;;;5075850;28;20024;-80
2022/04/22 00:02:35;;;;;;;15.55;11.68;;;13.90;50.50;;;;;;5075317;28;20074;-81
2022/04/22 00:05:02;;;;;;;14.68;11.07;;;13.60;51.30;;;;;;5074491;28;20028;-81
2022/04/22 00:07:28;;;;;;;17.27;11.82;;;13.70;51.20;;;;;;5075804;28;20028;-79
2022/04/22 00:09:55;;;;;;;17.83;12.43;;;13.90;50.00;;;;;;5075774;28;20108;-82
2022/04/22 00:12:20;;;;;;;20.13;12.68;;;13.70;49.80;;;;;;5073991;28;20028;-82
2022/04/22 00:14:46;;;;;;;18.50;13.07;;;13.40;50.40;;;;;;5092898;28;20028;-81
2022/04/22 00:17:12;;;;;;;17.77;12.15;;;13.30;50.60;;;;;;5075995;28;20028;-82
2022/04/22 00:19:37;;;;;;;17.38;12.43;;;13.50;50.60;;;;;;5074789;28;20028;-82
2022/04/22 00:22:03;;;;;;;18.95;11.77;;;13.60;50.40;;;;;;5075714;28;20031;-82
2022/04/22 00:24:29;;;;;;;18.33;12.38;;;13.70;50.00;;;;;;5075378;28;20032;-82
2022/04/22 00:26:55;;;;;;;17.60;11.27;;;13.80;49.80;;;;;;5069795;28;20034;-83
2022/04/22 00:29:20;;;;;;;17.33;11.75;;;13.80;49.70;;;;;;5062634;28;20119;-82
2022/04/22 00:31:46;;;;;;;16.20;11.40;;;13.60;49.80;;;;;;5093082;28;20131;-82
2022/04/22 00:34:12;;;;;;;16.95;12.27;;;13.60;50.10;;;;;;5075441;28;20489;-80
2022/04/22 00:36:37;;;;;;;16.40;11.48;;;13.50;50.00;;;;;;5093679;28;20027;-81
2022/04/22 00:39:05;;;;;;;18.00;12.38;;;13.50;50.80;;;;;;5093444;28;20024;-81
2022/04/22 00:41:32;;;;;;;15.50;11.05;;;13.30;51.60;;;;;;5074567;28;20073;-82
2022/04/22 00:43:57;;;;;;;17.23;11.68;;;13.40;51.40;;;;;;5094487;28;20016;-80
2022/04/22 00:46:23;;;;;;;17.30;11.90;;;13.50;50.80;;;;;;5079133;28;20046;-81
2022/04/22 00:48:48;;;;;;;16.00;11.35;;;13.60;50.00;;;;;;5079706;28;20185;-82
2022/04/22 00:51:16;;;;;;;16.02;10.98;;;13.70;49.70;;;;;;5097106;28;20039;-82
2022/04/22 00:53:45;;;;;;;18.10;12.98;;;13.60;49.50;;;;;;5079407;28;20382;-80
2022/04/22 00:56:12;;;;;;;15.35;11.35;;;13.30;50.00;;;;;;5097641;28;20031;-81
2022/04/22 00:58:43;;;;;;;17.52;11.95;;;13.30;50.40;;;;;;5078507;28;20099;-81
2022/04/22 01:01:11;;;;;;;18.55;12.73;;;13.00;50.70;;;;;;5079143;28;20039;-81
2022/04/22 01:03:37;;;;;;;18.55;12.68;;;13.00;51.00;;;;;;5079107;28;20025;-81
2022/04/22 01:11:36;;;;;;;16.95;12.20;;;13.40;50.00;;;;;;5097060;28;20090;-82
2022/04/22 01:14:07;;;;;;;18.42;11.57;;;13.00;50.70;;;;;;5078213;28;20028;-80
2022/04/22 01:16:33;;;;;;;16.25;11.40;;;13.00;50.90;;;;;;5078817;28;20112;-80
2022/04/22 01:18:59;;;;;;;17.17;11.77;;;12.80;51.20;;;;;;5094971;28;20020;-82
2022/04/22 01:21:25;;;;;;;17.42;11.25;;;12.90;51.60;;;;;;5097051;28;20024;-82
2022/04/22 01:23:50;;;;;;;15.13;11.20;;;13.00;51.30;;;;;;5078417;28;20047;-82
2022/04/22 01:26:16;;;;;;;16.33;11.80;;;12.80;51.60;;;;;;5079303;28;20060;-82
2022/04/22 01:28:43;;;;;;;17.45;11.73;;;12.90;51.60;;;;;;5096741;28;20012;-80
2022/04/22 01:31:09;;;;;;;26.25;16.55;;;12.90;51.80;;;;;;5078637;28;20032;-82
2022/04/22 01:33:35;;;;;;;15.82;11.80;;;12.90;52.30;;;;;;5077570;28;20048;-81
2022/04/22 01:36:00;;;;;;;17.55;12.02;;;12.80;51.60;;;;;;5078924;28;20127;-83
2022/04/22 01:38:26;;;;;;;22.85;15.57;;;12.90;52.00;;;;;;5078840;28;20021;-81
2022/04/22 01:40:52;;;;;;;22.35;15.45;;;12.70;51.70;;;;;;5096774;28;20017;-81
2022/04/22 01:43:18;;;;;;;25.20;14.75;;;12.20;52.50;;;;;;5077606;28;20028;-83
2022/04/22 01:45:44;;;;;;;30.05;18.73;;;12.10;52.80;;;;;;5096320;28;20035;-80
2022/04/22 01:48:09;;;;;;;30.48;19.50;;;12.20;52.90;;;;;;5096338;28;20364;-82
2022/04/22 01:50:35;;;;;;;28.55;17.83;;;12.30;52.40;;;;;;5077939;28;20058;-83
2022/04/22 01:53:01;;;;;;;21.13;14.55;;;12.30;52.60;;;;;;5078412;28;20028;-82
2022/04/22 01:55:27;;;;;;;24.83;15.57;;;11.90;53.10;;;;;;5076809;28;20036;-82
2022/04/22 01:57:54;;;;;;;23.20;15.25;;;11.70;54.10;;;;;;5077980;28;20020;-82
2022/04/22 02:00:20;;;;;;;20.50;14.27;;;11.90;53.90;;;;;;5078339;28;20028;-82
2022/04/22 02:02:46;;;;;;;21.83;14.95;;;12.20;54.10;;;;;;5096393;28;20438;-81
2022/04/22 02:05:12;;;;;;;20.85;14.50;;;12.30;53.30;;;;;;5095255;28;20062;-81
2022/04/22 02:07:41;;;;;;;18.38;12.98;;;12.40;53.10;;;;;;5096244;28;20030;-80
2022/04/22 02:10:07;;;;;;;23.10;15.15;;;12.40;53.20;;;;;;5077878;28;20028;-83
2022/04/22 02:12:33;;;;;;;24.25;15.18;;;12.30;53.40;;;;;;5094434;28;20044;-80
2022/04/22 02:14:59;;;;;;;22.63;15.32;;;12.30;53.30;;;;;;5095863;28;20065;-82
2022/04/22 02:17:25;;;;;;;18.67;13.70;;;12.40;53.10;;;;;;5078035;28;20048;-82
2022/04/22 02:19:51;;;;;;;20.40;14.00;;;12.50;52.90;;;;;;5077789;28;20028;-80
2022/04/22 02:22:16;;;;;;;22.98;14.40;;;12.70;52.80;;;;;;5076920;28;20028;-81
2022/04/22 02:24:42;;;;;;;22.85;13.93;;;12.80;53.10;;;;;;5077692;28;20028;-81
2022/04/22 02:29:52;;;;;;;20.90;14.82;;;12.90;53.40;;;;;;5096042;28;20565;-82
2022/04/22 02:32:17;;;;;;;20.55;14.40;;;13.00;53.10;;;;;;5077346;28;20028;-82
2022/04/22 02:34:43;;;;;;;20.02;14.02;;;12.90;53.00;;;;;;5077401;28;20024;-78
2022/04/22 02:37:10;;;;;;;22.63;14.40;;;12.50;53.50;;;;;;5076200;28;20052;-83
2022/04/22 02:39:36;;;;;;;19.80;13.88;;;12.30;54.30;;;;;;5077409;28;20024;-82
2022/04/22 02:47:31;;;;;;;20.35;14.23;;;12.90;52.90;;;;;;5094927;28;20023;-79
2022/04/22 02:49:56;;;;;;;25.17;16.02;;;12.70;53.20;;;;;;5075788;28;20028;-81
2022/04/22 02:52:22;;;;;;;18.33;13.13;;;13.00;53.00;;;;;;5077163;28;20064;-82
2022/04/22 02:54:47;;;;;;;18.23;13.13;;;13.00;52.60;;;;;;5094947;28;20028;-83
2022/04/22 02:57:16;;;;;;;18.55;13.82;;;12.70;53.10;;;;;;5095413;28;20088;-80
2022/04/22 02:59:45;;;;;;;27.92;13.38;;;12.60;53.30;;;;;;5094908;28;20073;-82
2022/04/22 03:02:10;;;;;;;19.70;13.65;;;12.60;53.40;;;;;;5077307;28;20032;-81
2022/04/22 03:04:37;;;;;;;24.77;13.48;;;12.60;53.00;;;;;;5094201;28;20020;-82
2022/04/22 03:07:03;;;;;;;22.30;14.32;;;12.30;53.70;;;;;;5077268;28;20096;-82
2022/04/22 03:09:29;;;;;;;20.83;13.65;;;12.30;53.50;;;;;;5094872;28;20020;-82
2022/04/22 03:11:55;;;;;;;18.63;13.55;;;12.20;54.10;;;;;;5076565;28;20052;-81
2022/04/22 03:14:20;;;;;;;18.95;13.15;;;12.40;53.70;;;;;;5094150;28;20024;-82
2022/04/22 03:16:46;;;;;;;22.52;14.15;;;12.50;53.30;;;;;;5093749;28;20053;-82
2022/04/22 03:19:12;;;;;;;20.40;13.55;;;12.50;53.20;;;;;;5076664;28;20114;-82
2022/04/22 03:21:38;;;;;;;17.23;12.18;;;12.50;53.40;;;;;;5077079;28;20470;-79
2022/04/22 03:24:04;;;;;;;19.48;13.07;;;12.60;53.00;;;;;;5076727;28;20390;-83
2022/04/22 03:26:30;;;;;;;21.85;13.70;;;12.20;53.70;;;;;;5094754;28;20435;-82
2022/04/22 03:28:58;;;;;;;18.90;13.13;;;12.00;54.10;;;;;;5077067;28;20020;-81
2022/04/22 03:31:24;;;;;;;20.15;12.98;;;12.20;54.00;;;;;;5074973;28;20501;-82
2022/04/22 03:33:50;;;;;;;18.67;13.25;;;12.40;53.50;;;;;;5094398;28;20024;-81
2022/04/22 03:36:16;;;;;;;18.15;13.07;;;12.60;52.80;;;;;;5076318;28;20498;-81
2022/04/22 03:38:43;;;;;;;20.50;14.20;;;12.70;53.30;;;;;;5076543;28;20021;-81
2022/04/22 03:41:10;;;;;;;22.17;14.45;;;12.80;52.70;;;;;;5076231;28;20497;-82
2022/04/22 03:43:36;;;;;;;21.67;14.98;;;12.40;53.20;;;;;;5093316;28;20031;-81
2022/04/22 03:46:01;;;;;;;19.35;13.73;;;12.40;53.60;;;;;;5076137;28;20024;-81
2022/04/22 03:48:28;;;;;;;21.33;13.70;;;12.40;53.20;;;;;;5075711;28;20073;-82
2022/04/22 03:50:54;;;;;;;26.45;14.93;;;12.50;53.40;;;;;;5077751;28;20127;-82
2022/04/22 03:53:20;;;;;;;23.83;13.98;;;12.50;53.60;;;;;;5090667;28;20115;-82
2022/04/22 03:55:46;;;;;;;19.00;12.73;;;12.60;53.80;;;;;;5075167;28;20039;-79
2022/04/22 03:58:12;;;;;;;22.05;14.10;;;12.60;53.80;;;;;;5093944;28;20024;-82
2022/04/22 04:00:42;;;;;;;24.55;15.18;;;12.70;53.70;;;;;;5075752;28;20020;-80
2022/04/22 04:03:12;;;;;;;21.75;13.90;;;12.90;53.40;;;;;;5093735;28;20024;-82
2022/04/22 04:05:39;;;;;;;23.63;15.82;;;13.00;53.20;;;;;;5074607;28;20062;-80
2022/04/22 04:08:06;;;;;;;22.27;14.13;;;13.10;53.40;;;;;;5093511;28;20035;-79
2022/04/22 04:16:01;;;;;;;23.42;14.88;;;13.30;52.80;;;;;;5092277;28;20066;-83
2022/04/22 04:18:32;;;;;;;20.08;14.55;;;13.20;53.20;;;;;;5091571;28;20064;-83
2022/04/22 04:23:43;;;;;;;24.77;14.63;;;13.60;52.60;;;;;;5092053;28;20030;-83
2022/04/22 04:26:09;;;;;;;23.17;15.15;;;13.60;52.80;;;;;;5073810;28;20028;-80
2022/04/22 04:28:36;;;;;;;22.25;14.20;;;13.40;53.80;;;;;;5074261;28;20038;-82
2022/04/22 04:31:02;;;;;;;21.27;14.82;;;13.60;53.10;;;;;;5073712;28;20024;-82
2022/04/22 04:33:29;;;;;;;20.85;14.43;;;13.70;53.00;;;;;;5088316;28;20073;-79
2022/04/22 04:35:56;;;;;;;22.15;13.88;;;13.50;53.70;;;;;;5074716;28;20028;-82
2022/04/22 04:38:25;;;;;;;18.80;14.13;;;13.50;53.90;;;;;;5075283;28;20496;-83
2022/04/22 04:40:51;;;;;;;19.55;14.43;;;13.50;53.90;;;;;;5075354;28;20055;-82
2022/04/22 04:43:18;;;;;;;22.95;14.85;;;13.80;53.40;;;;;;5074767;28;20032;-83
2022/04/22 04:45:45;;;;;;;20.83;14.50;;;14.10;52.80;;;;;;5075385;28;20378;-83
2022/04/22 04:48:11;;;;;;;20.75;15.35;;;14.20;52.80;;;;;;5075380;28;20035;-82
2022/04/22 04:50:40;;;;;;;22.17;14.98;;;14.10;52.80;;;;;;4374784;28;10000758;-84
2022/04/22 04:53:06;;;;;;;21.17;14.88;;;14.30;52.40;;;;;;5074008;28;20487;-83
2022/04/22 04:55:32;;;;;;;20.02;14.00;;;14.50;52.00;;;;;;5074635;28;20034;-80
2022/04/22 04:57:58;;;;;;;21.27;14.48;;;14.40;52.20;;;;;;5074209;28;20028;-82
2022/04/22 05:00:24;;;;;;;24.58;16.30;;;14.50;52.70;;;;;;5092301;28;20467;-80
2022/04/22 05:02:49;;;;;;;22.50;15.50;;;14.50;52.40;;;;;;5090921;28;20020;-80
2022/04/22 05:05:15;;;;;;;25.58;15.55;;;14.80;52.20;;;;;;5073062;28;20028;-78
2022/04/22 05:07:57;;;;;;;19.88;14.43;;;14.90;52.20;;;;;;5091026;28;20434;-80
2022/04/22 05:10:26;;;;;;;19.52;14.30;;;14.70;52.20;;;;;;5068397;28;20040;-80
2022/04/22 05:12:52;;;;;;;24.75;17.65;;;14.80;52.50;;;;;;5074282;28;20047;-80
2022/04/22 05:15:20;;;;;;;19.88;15.18;;;15.20;52.90;;;;;;5092842;28;20016;-82
2022/04/22 05:17:47;;;;;;;17.73;12.68;;;15.40;53.20;;;;;;5074841;28;20483;-80
2022/04/22 05:20:14;;;;;;;19.67;14.25;;;15.20;51.70;;;;;;5074932;28;20028;-81
2022/04/22 05:22:40;;;;;;;23.45;15.85;;;15.20;52.80;;;;;;5092731;28;20020;-80
2022/04/22 05:25:08;;;;;;;23.45;15.95;;;15.30;54.00;;;;;;5074427;28;20027;-78
2022/04/22 05:27:34;;;;;;;19.15;14.23;;;15.50;53.00;;;;;;5074428;28;20025;-79
2022/04/22 05:32:48;;;;;;;22.00;13.43;;;16.00;50.60;;;;;;5095508;28;20498;-79
2022/04/22 05:35:19;;;;;;;19.48;14.57;;;16.50;50.20;;;;;;5076328;28;20467;-79
2022/04/22 05:37:49;;;;;;;21.65;14.77;;;16.50;52.00;;;;;;5076420;28;20080;-79
2022/04/22 05:40:17;;;;;;;;;;;16.70;51.00;;;;;;5093247;28;20055;-79
2022/04/22 05:42:43;;;;;;;24.60;16.33;;;16.90;50.60;;;;;;5077581;28;20350;-79
2022/04/22 05:45:10;;;;;;;20.73;14.43;;;17.00;50.50;;;;;;5095868;28;20024;-82
2022/04/22 05:47:37;;;;;;;25.05;15.73;;;16.60;47.60;;;;;;5077885;28;20024;-81
2022/04/22 05:50:04;;;;;;;20.02;13.70;;;16.10;49.00;;;;;;5077708;28;20024;-81
2022/04/22 05:52:34;;;;;;;17.20;12.52;;;16.10;49.20;;;;;;5077076;28;20032;-81
2022/04/22 05:55:04;;;;;;;19.45;13.25;;;16.30;49.70;;;;;;5095764;28;20080;-81
2022/04/22 05:57:31;;;;;;;22.02;14.13;;;16.40;48.90;;;;;;5077512;28;20032;-80
2022/04/22 05:59:58;;;;;;;19.90;14.75;;;16.50;49.30;;;;;;5077439;28;20028;-81
2022/04/22 06:02:24;;;;;;;21.15;14.13;;;15.80;49.70;;;;;;5094025;28;20070;-81
2022/04/22 06:04:49;;;;;;;21.52;14.90;;;15.10;50.90;;;;;;5075366;28;20383;-82
2022/04/22 06:07:15;;;;;;;17.58;13.57;;;15.10;52.10;;;;;;5075312;28;20463;-80
2022/04/22 06:12:25;;;;;;;17.67;11.85;;;16.40;50.40;;;;;;5093945;28;20063;-81
2022/04/22 06:14:51;;;;;;;17.75;11.55;;;16.80;48.70;;;;;;5076320;28;20390;-81
2022/04/22 06:17:17;;;;;;;17.83;12.02;;;16.80;48.60;;;;;;5076810;28;20387;-81
2022/04/22 06:19:42;;;;;;;17.50;12.73;;;17.10;48.80;;;;;;5077454;28;20020;-81
2022/04/22 06:22:08;;;;;;;17.38;11.95;;;17.30;48.80;;;;;;5076663;28;20107;-80
2022/04/22 06:24:34;;;;;;;17.90;13.35;;;17.40;48.60;;;;;;5077432;28;20028;-83
2022/04/22 06:27:00;;;;;;;18.52;12.88;;;17.60;48.80;;;;;;5095545;28;20514;-84
2022/04/22 06:29:26;;;;;;;16.15;12.13;;;17.70;48.50;;;;;;5077101;28;20490;-82
2022/04/22 06:31:53;;;;;;;16.25;12.30;;;17.90;48.50;;;;;;5076684;28;20059;-81
2022/04/22 06:34:19;;;;;;;19.10;13.68;;;17.90;47.60;;;;;;5077008;28;20379;-81
2022/04/22 06:36:45;;;;;;;18.75;13.27;;;17.80;48.40;;;;;;5095051;28;20024;-80
2022/04/22 06:39:13;;;;;;;17.02;12.45;;;17.80;48.70;;;;;;5095118;28;20038;-81
2022/04/22 06:47:09;;;;;;;22.60;14.48;;;17.80;48.30;;;;;;5095064;28;20031;-84
2022/04/22 06:49:35;;;;;;;20.70;14.35;;;18.00;47.90;;;;;;5077045;28;20425;-83
2022/04/22 06:52:01;;;;;;;18.02;13.25;;;18.20;47.80;;;;;;5094280;28;20043;-81
2022/04/22 06:54:27;;;;;;;22.23;14.82;;;18.20;47.40;;;;;;5076929;28;20082;-81
2022/04/22 06:56:53;;;;;;;21.55;14.60;;;17.70;47.30;;;;;;5076362;28;20111;-81
2022/04/22 06:59:21;;;;;;;19.20;14.13;;;16.90;49.70;;;;;;5076842;28;20150;-83
2022/04/22 07:01:48;;;;;;;19.67;14.20;;;17.20;49.70;;;;;;5094698;28;20027;-82
2022/04/22 07:04:14;;;;;;;18.08;13.95;;;17.70;49.00;;;;;;5096253;28;20024;-81
2022/04/22 07:06:44;;;;;;;15.48;12.48;;;17.90;50.60;;;;;;5076670;28;20379;-83
2022/04/22 07:09:10;;;;;;;20.10;12.95;;;17.70;48.70;;;;;;4023723;28;10000712;-80
2022/04/22 07:11:38;;;;;;;16.38;12.18;;;17.50;49.40;;;;;;5073738;28;20486;-82
2022/04/22 07:14:04;;;;;;;18.17;12.57;;;17.50;49.10;;;;;;5074821;28;20020;-81
2022/04/22 07:16:30;;;;;;;17.23;13.10;;;17.20;50.70;;;;;;5076689;28;20024;-84
2022/04/22 07:18:57;;;;;;;16.98;12.48;;;17.00;50.80;;;;;;5093908;28;20439;-81
2022/04/22 07:21:23;;;;;;;16.00;11.05;;;17.30;50.50;;;;;;5076320;28;20031;-83
2022/04/22 07:23:50;;;;;;;12.45;9.32;;;17.50;50.00;;;;;;5093953;28;20028;-83
2022/04/22 07:26:18;;;;;;;15.82;10.85;;;17.90;46.50;;;;;;5075564;28;20024;-81
2022/04/22 07:28:46;;;;;;;22.20;16.10;;;18.10;46.40;;;;;;5093831;28;20032;-83
2022/04/22 07:31:15;;;;;;;17.00;12.82;;;18.30;47.60;;;;;;5075697;28;20077;-81
2022/04/22 07:33:41;;;;;;;13.68;11.10;;;18.50;46.00;;;;;;5093964;28;20031;-81
2022/04/22 07:36:07;;;;;;;19.35;13.07;;;18.20;46.70;;;;;;5075900;28;20382;-83
2022/04/22 07:38:33;;;;;;;14.20;10.75;;;18.10;47.60;;;;;;5075899;28;20028;-79
2022/04/22 07:40:59;;;;;;;11.98;9.40;;;18.10;45.90;;;;;;5075851;28;20042;-81
2022/04/22 07:48:59;;;;;;;12.50;9.27;;;18.50;46.50;;;;;;5094170;28;20035;-82
2022/04/22 07:51:28;;;;;;;13.75;8.98;;;18.50;45.20;;;;;;5075558;28;20044;-81
2022/04/22 07:53:57;;;;;;;12.20;9.20;;;18.60;44.60;;;;;;5074702;28;20165;-81
2022/04/22 07:56:24;;;;;;;12.50;9.25;;;18.00;45.00;;;;;;5075798;28;20467;-82
2022/04/22 07:58:50;;;;;;;14.73;10.77;;;18.20;46.20;;;;;;5075603;28;20116;-82
2022/04/22 08:01:16;;;;;;;14.77;11.15;;;18.30;45.30;;;;;;5093986;28;20022;-82
2022/04/22 08:03:41;;;;;;;15.70;12.45;;;18.60;45.90;;;;;;5093395;28;20028;-82
2022/04/22 08:06:07;;;;;;;19.98;12.32;;;18.50;46.80;;;;;;5075486;28;20110;-82
2022/04/22 08:08:33;;;;;;;15.00;11.30;;;17.80;47.90;;;;;;5075069;28;20112;-81
2022/04/22 08:10:59;;;;;;;15.60;12.05;;;17.80;48.00;;;;;;5092988;28;20097;-80
2022/04/22 08:13:28;;;;;;;17.38;11.95;;;17.90;48.10;;;;;;5075285;28;20044;-80
2022/04/22 08:15:54;;;;;;;16.35;11.30;;;18.30;46.20;;;;;;5093441;28;20032;-84
2022/04/22 08:18:20;;;;;;;14.38;10.85;;;18.20;46.40;;;;;;5075174;28;20034;-84
2022/04/22 08:20:46;;;;;;;16.45;10.93;;;18.20;46.20;;;;;;5093684;28;20103;-85
2022/04/22 08:23:12;;;;;;;15.60;10.73;;;18.30;45.10;;;;;;5074993;28;20028;-83
2022/04/22 08:25:37;;;;;;;13.27;10.10;;;18.20;46.10;;;;;;5075053;28;20024;-80
2022/04/22 08:28:04;;;;;;;16.42;11.60;;;18.50;45.40;;;;;;5075355;28;20024;-84
2022/04/22 08:30:30;;;;;;;13.98;10.20;;;18.70;45.20;;;;;;5075085;28;20074;-81
2022/04/22 08:32:56;;;;;;;16.92;10.40;;;18.90;44.60;;;;;;5075381;28;20136;-83
2022/04/22 08:35:22;;;;;;;14.52;10.45;;;19.10;43.80;;;;;;5075404;28;20016;-80
2022/04/22 08:37:48;;;;;;;14.90;10.90;;;19.30;44.30;;;;;;5075035;28;20149;-81
2022/04/22 08:40:14;;;;;;;16.20;10.75;;;19.40;43.70;;;;;;5093026;28;20286;-83
2022/04/22 08:42:42;;;;;;;15.80;10.23;;;19.30;44.10;;;;;;5093138;28;20024;-83
2022/04/22 08:45:11;;;;;;;17.65;11.88;;;19.60;45.20;;;;;;5074600;28;20379;-82
2022/04/22 08:50:22;;;;;;;14.63;10.85;;;19.60;45.20;;;;;;5093548;28;20439;-82
2022/04/22 08:53:06;;;;;;;15.60;11.40;;;19.20;46.00;;;;;;5092858;28;20372;-82
2022/04/22 08:55:32;;;;;;;15.32;11.35;;;19.20;47.60;;;;;;5093083;28;20021;-80
2022/04/22 08:58:00;;;;;;;16.83;11.55;;;18.80;46.90;;;;;;5092803;28;20027;-80
2022/04/22 09:00:27;;;;;;;15.98;11.50;;;18.00;47.00;;;;;;5092372;28;20032;-81
2022/04/22 09:02:57;;;;;;;17.92;11.95;;;18.00;48.30;;;;;;5075004;28;20063;-83
2022/04/22 09:05:26;;;;;;;17.00;12.95;;;18.50;49.20;;;;;;5078019;28;20016;-82
2022/04/22 09:07:53;;;;;;;18.98;13.02;;;18.70;48.40;;;;;;5097053;28;20027;-82
2022/04/22 09:10:19;;;;;;;17.85;13.43;;;18.70;48.60;;;;;;5079178;28;20546;-85
2022/04/22 09:12:56;;;;;;;19.80;13.77;;;19.20;48.90;;;;;;5078433;28;20044;-82
2022/04/22 09:15:27;;;;;;;18.73;13.32;;;19.60;47.80;;;;;;5098505;28;20367;-81
2022/04/22 09:18:00;;;;;;;15.90;13.23;;;19.70;48.10;;;;;;5095758;28;20074;-83
2022/04/22 09:20:30;;;;;;;22.27;14.30;;;19.80;47.10;;;;;;5096420;28;20032;-83
2022/04/22 09:22:57;;;;;;;20.50;15.00;;;18.90;47.70;;;;;;5096868;28;20012;-84
2022/04/22 09:25:25;;;;;;;20.10;14.65;;;18.90;48.00;;;;;;5077949;28;20039;-81
2022/04/22 09:27:51;;;;;;;18.48;14.32;;;19.20;48.10;;;;;;5096391;28;20035;-81
2022/04/22 09:30:17;;;;;;;20.20;13.70;;;19.50;48.10;;;;;;5078264;28;20026;-81
2022/04/22 09:32:44;;;;;;;17.55;13.40;;;19.20;49.10;;;;;;5078070;28;20036;-83
2022/04/22 09:35:18;;;;;;;16.42;13.00;;;19.60;48.40;;;;;;5095046;28;20016;-80
2022/04/22 09:43:22;;;;;;;22.30;14.43;;;18.70;49.60;;;;;;5094340;28;20106;-81
2022/04/22 09:45:52;;;;;;;18.38;13.80;;;18.00;50.10;;;;;;5075979;28;20050;-82
2022/04/22 09:48:19;;;;;;;16.58;13.45;;;17.20;53.30;;;;;;5075838;28;20032;-79
2022/04/22 09:50:52;;;;;;;22.70;14.27;;;17.70;53.90;;;;;;5095301;28;20025;-82
2022/04/22 09:53:32;;;;;;;17.45;14.00;;;18.10;52.00;;;;;;5077889;28;20162;-81
2022/04/22 09:56:04;;;;;;;17.17;13.50;;;18.20;52.90;;;;;;5095834;28;20012;-84
2022/04/22 09:58:30;;;;;;;17.05;13.00;;;18.90;51.90;;;;;;5077494;28;20027;-81
2022/04/22 10:01:01;;;;;;;15.95;12.15;;;19.00;51.20;;;;;;5077421;28;20024;-82
2022/04/22 10:03:32;;;;;;;15.65;12.20;;;18.90;51.40;;;;;;5078041;28;20035;-80
2022/04/22 10:05:58;;;;;;;16.48;13.07;;;18.80;51.60;;;;;;5095681;28;20485;-81
2022/04/22 10:08:25;;;;;;;15.20;12.45;;;18.70;51.70;;;;;;5077422;28;20024;-78
2022/04/22 10:10:54;;;;;;;18.45;13.68;;;19.00;52.40;;;;;;5077138;28;20526;-81
2022/04/22 10:13:23;;;;;;;18.27;13.68;;;18.00;53.70;;;;;;5077443;28;20390;-81
2022/04/22 10:15:50;;;;;;;15.43;12.68;;;17.40;56.30;;;;;;5076668;28;20024;-83
2022/04/22 10:18:16;;;;;;;15.20;11.60;;;17.70;54.60;;;;;;5095489;28;20028;-81
2022/04/22 10:20:44;;;;;;;15.55;10.90;;;18.30;52.20;;;;;;5095472;28;20028;-79
2022/04/22 10:23:10;;;;;;;17.95;10.93;;;18.10;51.50;;;;;;5077279;28;20382;-81
2022/04/22 10:25:36;;;;;;;15.50;12.27;;;17.90;52.10;;;;;;5077350;28;20020;-83
2022/04/22 10:28:07;;;;;;;17.10;11.40;;;18.00;52.80;;;;;;5095315;28;20390;-80
2022/04/22 10:30:33;;;;;;;14.18;11.05;;;18.10;51.70;;;;;;5077232;28;20055;-81
2022/04/22 10:33:00;;;;;;;16.17;12.23;;;17.80;52.50;;;;;;5076899;28;20028;-84
2022/04/22 10:35:26;;;;;;;14.27;11.60;;;17.90;53.20;;;;;;5077060;28;20119;-81
2022/04/22 10:37:52;;;;;;;15.90;11.65;;;18.40;52.50;;;;;;5076810;28;20107;-82
2022/04/22 10:40:26;;;;;;;14.63;11.48;;;18.40;51.10;;;;;;5077397;28;20050;-85
2022/04/22 10:42:53;;;;;;;13.75;11.48;;;18.50;51.20;;;;;;5077442;28;20429;-84
2022/04/22 10:48:17;;;;;;;14.82;12.30;;;18.50;51.70;;;;;;5095402;28;20493;-86
2022/04/22 10:51:03;;;;;;;15.50;12.15;;;18.50;51.50;;;;;;5076925;28;20024;-84
2022/04/22 10:53:33;;;;;;;17.80;11.98;;;18.70;51.10;;;;;;5077138;28;20035;-80
2022/04/22 10:56:33;;;;;;;15.43;12.35;;;18.90;50.70;;;;;;5094903;28;20031;-83
2022/04/22 10:59:20;;;;;;;16.88;12.70;;;19.30;50.90;;;;;;5095143;28;20027;-81
2022/04/22 11:01:47;;;;;;;13.95;10.48;;;19.50;50.50;;;;;;5076795;28;20032;-81
2022/04/22 11:04:20;;;;;;;13.55;10.18;;;19.80;50.10;;;;;;5094442;28;20355;-79
2022/04/22 11:06:46;;;;;;;12.55;9.80;;;19.70;48.50;;;;;;5094593;28;20027;-84
2022/04/22 11:09:30;;;;;;;11.20;9.10;;;19.90;48.40;;;;;;5076627;28;20539;-83
2022/04/22 11:11:57;;;;;;;11.90;8.70;;;19.90;47.40;;;;;;5076100;28;20051;-82
2022/04/22 11:14:28;;;;;;;11.35;8.93;;;19.60;47.50;;;;;;5094365;28;20028;-86
2022/04/22 11:16:55;;;;;;;11.25;8.45;;;18.60;47.60;;;;;;5076459;28;20032;-85
2022/04/22 11:19:21;;;;;;;13.82;8.73;;;17.20;50.00;;;;;;5075946;28;20056;-80
2022/04/22 11:21:55;;;;;;;12.68;9.13;;;17.00;50.80;;;;;;5076251;28;20558;-82
2022/04/22 11:24:33;;;;;;;12.23;9.07;;;16.50;51.10;;;;;;5075983;28;20027;-81
2022/04/22 11:27:14;;;;;;;16.13;9.80;;;16.60;51.90;;;;;;5075546;28;20024;-80
2022/04/22 11:29:41;;;;;;;13.23;9.00;;;17.30;50.80;;;;;;5076003;28;20021;-81
2022/04/22 11:32:21;;;;;;;12.15;9.00;;;17.90;50.10;;;;;;5094200;28;20506;-80
2022/04/22 11:34:54;;;;;;;12.00;9.10;;;18.20;48.30;;;;;;5075628;28;20114;-82
2022/04/22 11:37:22;;;;;;;12.02;8.65;;;17.90;48.80;;;;;;5094099;28;20066;-81
2022/04/22 11:39:48;;;;;;;13.93;8.90;;;17.90;49.40;;;;;;5094068;28;20088;-83
2022/04/22 11:42:17;;;;;;;12.25;8.60;;;18.10;49.40;;;;;;5075388;28;20492;-81
2022/04/22 11:45:03;;;;;;;10.30;7.63;;;18.70;47.90;;;;;;5075369;28;20172;-81
2022/04/22 11:47:29;;;;;;;11.88;7.65;;;18.20;47.80;;;;;;5093008;28;20065;-87
2022/04/22 11:49:56;;;;;;;12.18;7.50;;;18.50;47.00;;;;;;5093573;28;20024;-80
2022/04/22 11:52:22;;;;;;;11.23;7.38;;;18.60;46.50;;;;;;5075225;28;20032;-83
2022/04/22 11:54:49;;;;;;;12.85;8.65;;;18.00;47.00;;;;;;5075514;28;20027;-79
2022/04/22 11:57:17;;;;;;;10.48;7.53;;;17.70;50.20;;;;;;5075500;28;20410;-87
2022/04/22 12:05:31;;;;;;;10.52;8.50;;;18.30;48.30;;;;;;5075573;28;20416;-81
2022/04/22 12:05:33;;;;;;;15.15;7.75;;;18.40;46.90;;;;;;5093733;28;20047;-82
2022/04/22 12:08:10;;;;;;;14.05;8.13;;;18.80;46.60;;;;;;5093591;28;20028;-84
2022/04/22 12:10:36;;;;;;;9.88;8.05;;;18.10;47.60;;;;;;5093178;28;20059;-82
2022/04/22 12:13:03;;;;;;;10.60;8.68;;;18.10;46.20;;;;;;5075818;28;20503;-81
2022/04/22 12:15:30;;;;;;;9.57;7.80;;;18.20;46.90;;;;;;5075208;28;20385;-80
2022/04/22 12:17:56;;;;;;;13.00;8.98;;;18.70;46.50;;;;;;5075336;28;20565;-78
2022/04/22 12:20:25;;;;;;;12.75;8.23;;;19.00;45.30;;;;;;5075245;28;20025;-78
2022/04/22 12:22:52;;;;;;;11.02;7.70;;;18.60;45.00;;;;;;5075484;28;20028;-80
2022/04/22 12:25:20;;;;;;;9.95;7.85;;;18.40;46.40;;;;;;5075061;28;20024;-80
2022/04/22 12:28:09;;;;;;;8.70;7.15;;;18.80;45.60;;;;;;5075231;28;20489;-81
2022/04/22 12:30:39;;;;;;;9.90;7.43;;;19.20;45.40;;;;;;5093093;28;20035;-80
2022/04/22 12:33:06;;;;;;;;;;;19.60;45.90;;;;;;5088954;28;20044;-80
2022/04/22 12:35:32;;;;;;;8.75;7.07;;;20.10;45.90;;;;;;5093309;28;19904;-80
2022/04/22 12:38:04;;;;;;;9.05;7.03;;;20.50;45.10;;;;;;5092908;28;20039;-82
2022/04/22 12:40:43;;;;;;;10.45;7.40;;;20.50;44.20;;;;;;5079267;28;20076;-83
2022/04/22 12:43:32;;;;;;;8.88;6.93;;;20.50;44.10;;;;;;5079393;28;20050;-86
2022/04/22 12:52:23;;;;;;;9.50;7.00;;;19.30;45.40;;;;;;5097173;28;20035;-83
2022/04/22 12:54:49;;;;;;;8.45;6.72;;;20.00;44.60;;;;;;5078976;28;20471;-80
2022/04/22 12:57:22;;;;;;;8.15;6.95;;;20.30;44.70;;;;;;5097200;28;20420;-86
2022/04/22 12:59:56;;;;;;;9.73;7.13;;;20.50;45.00;;;;;;5078835;28;20024;-78
2022/04/22 13:02:29;;;;;;;13.13;7.70;;;20.70;44.10;;;;;;5097081;28;20157;-81
2022/04/22 13:05:00;;;;;;;7.90;6.30;;;20.50;43.80;;;;;;5078979;28;20016;-81
2022/04/22 13:07:41;;;;;;;7.63;6.68;;;20.40;44.90;;;;;;5078740;28;20024;-81
2022/04/22 13:10:11;;;;;;;9.32;6.38;;;20.50;45.20;;;;;;5078591;28;20047;-81
2022/04/22 13:12:41;;;;;;;8.20;6.30;;;20.50;44.70;;;;;;5078671;28;20086;-88
2022/04/22 13:15:08;;;;;;;8.77;6.00;;;20.30;44.40;;;;;;5096792;28;20043;-80
2022/04/22 13:17:39;;;;;;;8.57;5.80;;;20.30;43.70;;;;;;5078477;28;20056;-82
2022/04/22 13:20:06;;;;;;;12.80;6.10;;;20.10;44.60;;;;;;5078464;28;20028;-80
2022/04/22 13:22:32;;;;;;;6.82;5.72;;;20.50;44.10;;;;;;5078319;28;20035;-91
2022/04/22 13:24:59;;;;;;;7.65;6.18;;;20.70;42.50;;;;;;5097028;28;20020;-86
2022/04/22 13:27:24;;;;;;;8.50;5.80;;;20.30;43.60;;;;;;5078444;28;20081;-80
2022/04/22 13:29:50;;;;;;;7.68;5.90;;;20.30;44.10;;;;;;5096661;28;20035;-87
2022/04/22 13:32:16;;;;;;;7.38;5.97;;;20.20;43.50;;;;;;5077911;28;20038;-80